createdAt,value
2019-04-06T00:01:50.531Z,67.27
2019-04-06T00:04:20.698Z,66.68
2019-04-06T00:06:50.924Z,66.34
2019-04-06T00:09:21.127Z,66.13
2019-04-06T00:11:51.305Z,65.81
2019-04-06T00:14:21.483Z,65.72
2019-04-06T00:16:51.646Z,65.67
2019-04-06T00:19:21.842Z,65.98
2019-04-06T00:21:54.328Z,66.09
2019-04-06T00:24:24.515Z,66.23
2019-04-06T00:26:56.482Z,66.03
2019-04-06T00:29:32.444Z,66.03
2019-04-06T00:32:26.648Z,66.11
2019-04-06T00:34:56.832Z,65.89
2019-04-06T00:37:26.994Z,65.94
2019-04-06T00:39:57.157Z,66.14
2019-04-06T00:42:27.308Z,65.80
2019-04-06T00:44:57.520Z,65.83
2019-04-06T00:47:27.722Z,65.68
2019-04-06T00:49:57.929Z,65.79
2019-04-06T00:52:28.144Z,65.59
2019-04-06T00:54:58.388Z,65.64
2019-04-06T00:57:29.492Z,65.62
2019-04-06T00:59:59.767Z,65.54
2019-04-06T01:02:33.044Z,65.46
2019-04-06T01:05:05.720Z,65.46
2019-04-06T01:07:38.993Z,65.48
2019-04-06T01:10:09.204Z,65.48
2019-04-06T01:12:39.384Z,65.46
2019-04-06T01:15:11.057Z,65.84
2019-04-06T01:17:41.255Z,66.15
2019-04-06T01:20:12.493Z,65.86
2019-04-06T01:22:42.648Z,65.73
2019-04-06T01:25:14.135Z,65.60
2019-04-06T01:27:44.290Z,66.30
2019-04-06T01:30:18.252Z,66.69
2019-04-06T01:32:48.411Z,67.14
2019-04-06T01:35:18.694Z,66.74
2019-04-06T01:37:48.909Z,66.25
2019-04-06T01:40:20.602Z,66.07
2019-04-06T01:42:50.764Z,66.17
2019-04-06T01:45:23.659Z,65.94
2019-04-06T01:47:57.796Z,65.76
2019-04-06T01:50:27.994Z,65.87
2019-04-06T01:52:58.189Z,65.53
2019-04-06T01:55:28.372Z,65.41
2019-04-06T01:57:58.540Z,65.57
2019-04-06T02:00:28.721Z,65.71
2019-04-06T02:02:58.891Z,65.61
2019-04-06T02:05:29.152Z,65.69
2019-04-06T02:08:01.597Z,65.79
2019-04-06T02:10:31.772Z,65.85
2019-04-06T02:13:01.923Z,65.83
2019-04-06T02:15:35.013Z,65.77
2019-04-06T02:18:06.105Z,65.90
2019-04-06T02:20:36.834Z,65.93
2019-04-06T02:23:07.065Z,65.83
2019-04-06T02:25:39.083Z,65.87
2019-04-06T02:28:09.144Z,65.71
2019-04-06T02:30:44.772Z,65.73
2019-04-06T02:33:42.895Z,65.75
2019-04-06T02:36:32.081Z,65.94
2019-04-06T02:39:11.840Z,65.92
2019-04-06T02:41:50.263Z,65.84
2019-04-06T02:44:20.488Z,65.81
2019-04-06T02:46:51.156Z,65.96
2019-04-06T02:49:21.807Z,65.85
2019-04-06T02:51:52.215Z,65.84
2019-04-06T02:54:22.416Z,65.94
2019-04-06T02:56:52.740Z,65.91
2019-04-06T02:59:24.383Z,65.92
2019-04-06T03:01:54.780Z,65.94
2019-04-06T03:04:24.995Z,65.96
2019-04-06T03:06:55.233Z,65.96
2019-04-06T03:09:25.445Z,66.69
2019-04-06T03:11:56.233Z,66.91
2019-04-06T03:14:27.672Z,67.29
2019-04-06T03:16:57.870Z,67.07
2019-04-06T03:19:28.468Z,66.99
2019-04-06T03:21:58.646Z,67.48
2019-04-06T03:24:28.812Z,67.23
2019-04-06T03:27:01.734Z,67.11
2019-04-06T03:29:30.913Z,67.63
2019-04-06T03:32:01.380Z,67.65
2019-04-06T03:34:33.459Z,67.43
2019-04-06T03:37:07.576Z,67.23
2019-04-06T03:39:39.061Z,67.25
2019-04-06T03:42:11.099Z,67.93
2019-04-06T03:44:41.069Z,67.50
2019-04-06T03:47:11.283Z,67.42
2019-04-06T03:49:41.680Z,67.28
2019-04-06T03:52:13.345Z,66.92
2019-04-06T03:54:43.534Z,66.84
2019-04-06T03:57:17.081Z,66.67
2019-04-06T03:59:47.902Z,67.06
2019-04-06T04:02:18.096Z,67.17
2019-04-06T04:04:48.293Z,67.03
2019-04-06T04:07:18.437Z,67.07
2019-04-06T04:09:48.722Z,66.95
2019-04-06T04:12:18.912Z,66.94
2019-04-06T04:14:51.299Z,67.14
2019-04-06T04:17:28.309Z,67.02
2019-04-06T04:20:03.440Z,67.26
2019-04-06T04:22:43.125Z,67.12
2019-04-06T04:25:19.854Z,67.36
2019-04-06T04:27:55.597Z,67.15
2019-04-06T04:30:35.298Z,67.03
2019-04-06T04:33:12.340Z,67.23
2019-04-06T04:35:51.858Z,67.13
2019-04-06T04:38:25.646Z,67.00
2019-04-06T04:41:00.401Z,67.12
2019-04-06T04:43:36.180Z,67.90
2019-04-06T04:46:11.885Z,67.84
2019-04-06T04:48:51.378Z,67.46
2019-04-06T04:51:28.949Z,67.38
2019-04-06T04:54:00.921Z,67.31
2019-04-06T04:56:34.423Z,67.07
2019-04-06T04:59:10.656Z,67.31
2019-04-06T05:01:50.363Z,67.46
2019-04-06T05:04:23.491Z,67.54
2019-04-06T05:06:56.025Z,67.60
2019-04-06T05:09:31.017Z,67.58
2019-04-06T05:12:08.086Z,67.46
2019-04-06T05:15:06.510Z,68.03
2019-04-06T05:17:38.224Z,68.14
2019-04-06T05:20:14.948Z,68.47
2019-04-06T05:22:47.366Z,67.96
2019-04-06T05:25:19.848Z,67.70
2019-04-06T05:27:52.478Z,67.86
2019-04-06T05:30:22.247Z,68.28
2019-04-06T05:32:54.172Z,67.96
2019-04-06T05:35:26.528Z,67.47
2019-04-06T05:37:56.870Z,68.06
2019-04-06T05:40:31.277Z,67.11
2019-04-06T05:43:05.050Z,66.95
2019-04-06T05:45:40.452Z,66.27
2019-04-06T05:48:15.703Z,66.08
2019-04-06T05:50:55.566Z,66.13
2019-04-06T05:53:32.753Z,66.64
2019-04-06T05:56:10.593Z,66.47
2019-04-06T05:58:47.617Z,66.16
2019-04-06T06:01:24.715Z,65.52
2019-04-06T06:03:59.413Z,64.71
2019-04-06T06:06:30.605Z,62.73
2019-04-06T06:09:11.148Z,61.37
2019-04-06T06:11:45.566Z,60.53
2019-04-06T06:14:21.837Z,59.31
2019-04-06T06:16:56.506Z,59.09
2019-04-06T06:19:33.545Z,58.00
2019-04-06T06:22:13.936Z,58.31
2019-04-06T06:24:54.594Z,57.92
2019-04-06T06:27:30.935Z,57.56
2019-04-06T06:30:07.992Z,57.82
2019-04-06T06:32:46.942Z,58.20
2019-04-06T06:35:19.717Z,57.71
2019-04-06T06:37:50.664Z,57.44
2019-04-06T06:40:22.596Z,56.84
2019-04-06T06:42:53.795Z,56.02
2019-04-06T06:45:24.725Z,55.46
2019-04-06T06:47:55.535Z,56.26
2019-04-06T06:50:26.197Z,55.21
2019-04-06T06:52:57.094Z,55.07
2019-04-06T06:55:27.893Z,54.29
2019-04-06T06:57:58.594Z,52.82
2019-04-06T07:00:29.230Z,52.75
2019-04-06T07:03:00.214Z,50.86
2019-04-06T07:05:31.013Z,51.47
2019-04-06T07:08:01.928Z,51.48
2019-04-06T07:10:32.795Z,51.32
2019-04-06T07:13:03.456Z,51.93
2019-04-06T07:15:34.042Z,51.44
2019-04-06T07:18:05.100Z,51.40
2019-04-06T07:20:36.027Z,50.89
2019-04-06T07:23:06.673Z,49.96
2019-04-06T07:25:37.805Z,50.69
2019-04-06T07:28:08.656Z,50.08
2019-04-06T07:30:39.447Z,49.96
2019-04-06T07:33:11.112Z,49.54
2019-04-06T07:35:42.158Z,49.29
2019-04-06T07:38:12.955Z,49.42
2019-04-06T07:40:43.888Z,49.48
2019-04-06T07:43:16.927Z,47.81
2019-04-06T07:45:47.602Z,46.42
2019-04-06T07:48:18.261Z,46.25
2019-04-06T07:50:49.360Z,47.01
2019-04-06T07:53:20.180Z,46.36
2019-04-06T07:55:51.127Z,46.43
2019-04-06T07:58:22.183Z,47.14
2019-04-06T08:00:52.744Z,47.73
2019-04-06T08:03:24.763Z,46.43
2019-04-06T08:05:55.623Z,46.97
2019-04-06T08:08:28.618Z,46.63
2019-04-06T08:10:59.313Z,46.47
2019-04-06T08:13:30.021Z,45.07
2019-04-06T08:16:00.919Z,45.15
2019-04-06T08:18:32.429Z,44.75
2019-04-06T08:21:03.258Z,44.21
2019-04-06T08:23:34.313Z,44.53
2019-04-06T08:26:05.214Z,44.23
2019-04-06T08:28:35.944Z,44.43
2019-04-06T08:31:06.711Z,44.94
2019-04-06T08:33:37.539Z,44.77
2019-04-06T08:36:08.131Z,43.76
2019-04-06T08:38:38.917Z,42.54
2019-04-06T08:41:09.837Z,43.21
2019-04-06T08:43:40.883Z,43.51
2019-04-06T08:46:11.701Z,43.14
2019-04-06T08:48:42.373Z,42.70
2019-04-06T08:51:13.714Z,43.42
2019-04-06T08:53:45.171Z,42.79
2019-04-06T08:56:16.005Z,41.50
2019-04-06T08:58:47.027Z,41.75
2019-04-06T09:01:17.915Z,41.36
2019-04-06T09:03:48.651Z,40.76
2019-04-06T09:06:19.821Z,40.84
2019-04-06T09:08:51.681Z,40.19
2019-04-06T09:11:22.499Z,40.23
2019-04-06T09:13:54.030Z,40.49
2019-04-06T09:16:25.570Z,40.63
2019-04-06T09:18:59.762Z,40.66
2019-04-06T09:21:32.194Z,40.69
2019-04-06T09:24:03.165Z,40.56
2019-04-06T09:26:34.209Z,40.45
2019-04-06T09:29:05.192Z,40.25
2019-04-06T09:31:37.348Z,39.95
2019-04-06T09:34:09.227Z,40.25
2019-04-06T09:36:41.113Z,41.00
2019-04-06T09:39:12.234Z,39.30
2019-04-06T09:41:42.816Z,40.17
2019-04-06T09:44:22.855Z,39.25
2019-04-06T09:47:06.345Z,39.20
2019-04-06T09:49:51.502Z,39.09
2019-04-06T09:52:39.369Z,38.81
2019-04-06T09:55:23.596Z,38.87
2019-04-06T09:58:03.490Z,39.65
2019-04-06T10:00:53.583Z,38.67
2019-04-06T10:03:41.939Z,39.34
2019-04-06T10:06:32.269Z,39.14
2019-04-06T10:09:17.557Z,39.08
2019-04-06T10:12:13.338Z,38.58
2019-04-06T10:15:09.472Z,38.86
2019-04-06T10:17:59.035Z,39.12
2019-04-06T10:20:49.884Z,39.82
2019-04-06T10:23:40.045Z,39.30
2019-04-06T10:26:45.090Z,38.77
2019-04-06T10:29:33.434Z,38.22
2019-04-06T10:32:29.039Z,37.76
2019-04-06T10:35:27.939Z,37.87
2019-04-06T10:38:23.913Z,37.24
2019-04-06T10:41:23.050Z,36.53
2019-04-06T10:44:16.119Z,36.15
2019-04-06T10:47:04.659Z,36.43
2019-04-06T10:49:44.804Z,35.71
2019-04-06T10:52:40.678Z,35.63
2019-04-06T10:55:29.506Z,35.42
2019-04-06T10:58:17.960Z,35.32
2019-04-06T11:01:06.771Z,35.00
2019-04-06T11:03:56.929Z,34.77
2019-04-06T11:07:04.653Z,34.94
2019-04-06T11:09:58.992Z,35.31
2019-04-06T11:12:58.411Z,34.72
2019-04-06T11:15:47.696Z,34.66
2019-04-06T11:18:36.338Z,34.38
2019-04-06T11:21:34.969Z,34.01
2019-04-06T11:24:27.757Z,34.32
2019-04-06T11:27:14.609Z,34.18
2019-04-06T11:30:13.168Z,34.06
2019-04-06T11:33:01.610Z,33.15
2019-04-06T11:35:50.317Z,33.42
2019-04-06T11:38:39.139Z,32.56
2019-04-06T11:41:27.631Z,32.90
2019-04-06T11:44:18.646Z,31.61
2019-04-06T11:47:07.082Z,33.00
2019-04-06T11:50:00.420Z,32.34
2019-04-06T11:52:49.159Z,32.44
2019-04-06T11:55:39.464Z,31.55
2019-04-06T11:58:29.463Z,32.36
2019-04-06T12:01:07.103Z,31.69
2019-04-06T12:03:55.880Z,32.09
2019-04-06T12:07:00.815Z,31.42
2019-04-06T12:09:47.243Z,32.39
2019-04-06T12:12:36.149Z,32.25
2019-04-06T12:15:26.232Z,32.04
2019-04-06T12:18:13.498Z,31.61
2019-04-06T12:21:15.335Z,31.72
2019-04-06T12:24:11.817Z,32.04
2019-04-06T12:27:20.980Z,32.45
2019-04-06T12:30:36.686Z,31.97
2019-04-06T12:33:24.341Z,32.93
2019-04-06T12:36:24.443Z,32.72
2019-04-06T12:39:15.586Z,32.67
2019-04-06T12:42:22.925Z,33.13
2019-04-06T12:45:19.331Z,32.69
2019-04-06T12:48:30.628Z,32.49
2019-04-06T12:51:28.540Z,32.60
2019-04-06T12:54:18.644Z,32.71
2019-04-06T12:57:08.747Z,33.41
2019-04-06T13:00:08.337Z,33.61
2019-04-06T13:03:05.719Z,33.54
2019-04-06T13:05:55.613Z,33.92
2019-04-06T13:08:44.538Z,34.10
2019-04-06T13:11:38.396Z,34.09
2019-04-06T13:14:29.588Z,33.83
2019-04-06T13:17:39.066Z,33.86
2019-04-06T13:20:27.190Z,33.83
2019-04-06T13:23:20.025Z,33.33
2019-04-06T13:26:09.903Z,33.79
2019-04-06T13:29:04.806Z,34.33
2019-04-06T13:32:17.860Z,33.29
2019-04-06T13:35:01.770Z,33.61
2019-04-06T13:37:51.461Z,33.39
2019-04-06T13:40:46.212Z,33.69
2019-04-06T13:43:39.574Z,33.68
2019-04-06T13:46:38.132Z,33.32
2019-04-06T13:49:30.886Z,33.19
2019-04-06T13:52:09.565Z,33.53
2019-04-06T13:55:08.110Z,33.21
2019-04-06T13:58:13.376Z,33.86
2019-04-06T14:01:25.270Z,33.26
2019-04-06T14:04:18.240Z,33.88
2019-04-06T14:07:17.017Z,33.63
2019-04-06T14:10:12.338Z,34.18
2019-04-06T14:13:19.025Z,34.16
2019-04-06T14:16:12.380Z,33.72
2019-04-06T14:19:02.028Z,33.86
2019-04-06T14:21:51.088Z,34.09
2019-04-06T14:24:43.489Z,34.27
2019-04-06T14:27:37.342Z,34.30
2019-04-06T14:30:22.928Z,34.46
2019-04-06T14:33:21.728Z,34.92
2019-04-06T14:36:23.469Z,34.72
2019-04-06T14:39:31.380Z,35.11
2019-04-06T14:42:31.237Z,35.37
2019-04-06T14:45:31.236Z,35.79
2019-04-06T14:48:17.414Z,36.03
2019-04-06T14:51:24.852Z,36.03
2019-04-06T14:54:28.056Z,36.07
2019-04-06T14:57:25.199Z,36.46
2019-04-06T15:00:21.389Z,36.58
2019-04-06T15:03:28.078Z,36.73
2019-04-06T15:06:25.367Z,37.26
2019-04-06T15:09:20.169Z,37.32
2019-04-06T15:12:18.383Z,37.13
2019-04-06T15:15:10.969Z,37.40
2019-04-06T15:18:02.777Z,37.69
2019-04-06T15:20:48.469Z,37.81
2019-04-06T15:23:30.563Z,38.35
2019-04-06T15:26:21.847Z,38.55
2019-04-06T15:29:20.831Z,38.76
2019-04-06T15:32:07.541Z,39.15
2019-04-06T15:35:15.326Z,39.62
2019-04-06T15:38:07.285Z,39.78
2019-04-06T15:41:13.714Z,40.19
2019-04-06T15:44:10.467Z,40.19
2019-04-06T15:46:54.301Z,40.49
2019-04-06T15:50:04.529Z,40.85
2019-04-06T15:52:53.624Z,41.25
2019-04-06T15:56:01.427Z,41.52
2019-04-06T15:58:43.381Z,41.80
2019-04-06T16:01:32.902Z,41.71
2019-04-06T16:04:22.149Z,42.10
2019-04-06T16:07:16.393Z,42.42
2019-04-06T16:10:17.304Z,42.92
2019-04-06T16:13:15.848Z,43.19
2019-04-06T16:15:53.811Z,43.77
2019-04-06T16:18:48.814Z,44.00
2019-04-06T16:21:53.496Z,44.46
2019-04-06T16:24:51.328Z,44.81
2019-04-06T16:27:38.983Z,45.01
2019-04-06T16:30:29.243Z,45.09
2019-04-06T16:33:23.375Z,45.56
2019-04-06T16:36:13.628Z,45.73
2019-04-06T16:38:59.862Z,45.73
2019-04-06T16:41:50.013Z,45.78
2019-04-06T16:44:29.422Z,45.69
2019-04-06T16:47:30.561Z,46.15
2019-04-06T16:50:32.942Z,46.25
2019-04-06T16:53:35.243Z,46.33
2019-04-06T16:56:24.953Z,46.46
2019-04-06T16:59:19.968Z,47.33
2019-04-06T17:02:28.576Z,47.74
2019-04-06T17:05:29.516Z,48.46
2019-04-06T17:08:21.469Z,48.02
2019-04-06T17:11:05.166Z,48.58
2019-04-06T17:13:54.437Z,48.77
2019-04-06T17:16:46.501Z,49.17
2019-04-06T17:19:45.244Z,49.15
2019-04-06T17:22:38.365Z,49.18
2019-04-06T17:25:39.287Z,49.22
2019-04-06T17:28:34.134Z,49.86
2019-04-06T17:31:17.340Z,49.80
2019-04-06T17:34:12.468Z,49.96
2019-04-06T17:37:07.371Z,50.08
2019-04-06T17:40:12.191Z,49.92
2019-04-06T17:43:15.780Z,49.96
2019-04-06T17:46:10.923Z,50.30
2019-04-06T17:49:02.511Z,50.51
2019-04-06T17:51:51.895Z,50.72
2019-04-06T17:54:31.108Z,51.17
2019-04-06T17:57:26.170Z,51.35
2019-04-06T18:00:18.505Z,51.15
2019-04-06T18:03:16.443Z,51.30
2019-04-06T18:06:13.405Z,52.20
2019-04-06T18:09:34.414Z,52.27
2019-04-06T18:12:52.897Z,52.74
2019-04-06T18:15:31.470Z,52.56
2019-04-06T18:18:04.517Z,53.58
2019-04-06T18:20:50.603Z,53.50
2019-04-06T18:23:39.305Z,53.90
2019-04-06T18:26:26.352Z,54.22
2019-04-06T18:29:06.166Z,54.50
2019-04-06T18:32:02.980Z,54.09
2019-04-06T18:34:43.455Z,54.45
2019-04-06T18:37:43.352Z,54.54
2019-04-06T18:40:30.556Z,54.74
2019-04-06T18:43:09.712Z,54.91
2019-04-06T18:45:47.708Z,54.92
2019-04-06T18:48:31.630Z,55.12
2019-04-06T18:51:06.893Z,55.48
2019-04-06T18:53:56.585Z,55.29
2019-04-06T18:56:42.405Z,55.36
2019-04-06T18:59:23.238Z,55.12
2019-04-06T19:02:01.112Z,55.32
2019-04-06T19:04:34.683Z,55.34
2019-04-06T19:07:15.330Z,55.40
2019-04-06T19:09:54.727Z,55.12
2019-04-06T19:12:30.339Z,55.51
2019-04-06T19:15:02.366Z,55.06
2019-04-06T19:17:54.351Z,54.71
2019-04-06T19:20:30.715Z,54.96
2019-04-06T19:23:05.665Z,55.17
2019-04-06T19:25:43.299Z,55.21
2019-04-06T19:28:18.722Z,55.37
2019-04-06T19:31:08.052Z,55.11
2019-04-06T19:33:55.895Z,55.43
2019-04-06T19:36:34.016Z,55.57
2019-04-06T19:39:09.672Z,55.18
2019-04-06T19:41:42.816Z,55.41
2019-04-06T19:44:13.529Z,55.15
2019-04-06T19:46:46.498Z,56.11
2019-04-06T19:49:19.565Z,56.19
2019-04-06T19:51:55.806Z,56.07
2019-04-06T19:54:36.638Z,56.57
2019-04-06T19:57:09.019Z,56.15
2019-04-06T19:59:43.218Z,56.14
2019-04-06T20:02:15.865Z,55.95
2019-04-06T20:04:48.849Z,56.14
2019-04-06T20:07:22.935Z,55.79
2019-04-06T20:09:57.961Z,55.74
2019-04-06T20:12:32.447Z,55.38
2019-04-06T20:15:03.981Z,55.30
2019-04-06T20:17:41.035Z,55.09
2019-04-06T20:20:16.089Z,55.12
2019-04-06T20:22:48.753Z,55.00
2019-04-06T20:25:27.525Z,55.24
2019-04-06T20:28:01.272Z,55.33
2019-04-06T20:30:34.095Z,55.34
2019-04-06T20:33:12.042Z,55.33
2019-04-06T20:35:50.765Z,55.50
2019-04-06T20:38:29.016Z,55.55
2019-04-06T20:41:12.198Z,55.77
2019-04-06T20:43:44.890Z,55.94
2019-04-06T20:46:22.301Z,56.11
2019-04-06T20:49:00.117Z,56.22
2019-04-06T20:51:35.935Z,56.63
2019-04-06T20:54:14.212Z,56.61
2019-04-06T20:57:12.026Z,56.77
2019-04-06T20:59:53.845Z,56.61
2019-04-06T21:02:27.848Z,56.51
2019-04-06T21:05:00.350Z,56.31
2019-04-06T21:07:39.398Z,56.34
2019-04-06T21:10:17.109Z,56.51
2019-04-06T21:12:54.151Z,56.49
2019-04-06T21:15:35.806Z,56.62
2019-04-06T21:18:20.035Z,56.49
2019-04-06T21:20:56.507Z,56.42
2019-04-06T21:23:35.114Z,56.37
2019-04-06T21:26:19.174Z,56.59
2019-04-06T21:28:58.440Z,56.83
2019-04-06T21:31:32.818Z,56.97
2019-04-06T21:34:12.108Z,57.09
2019-04-06T21:36:46.136Z,57.14
2019-04-06T21:39:23.927Z,57.13
2019-04-06T21:41:55.400Z,57.32
2019-04-06T21:44:33.266Z,57.41
2019-04-06T21:47:12.442Z,57.29
2019-04-06T21:49:46.737Z,57.44
2019-04-06T21:52:21.601Z,57.51
2019-04-06T21:55:04.938Z,57.57
2019-04-06T21:57:43.640Z,57.73
2019-04-06T22:00:28.193Z,57.73
2019-04-06T22:03:08.862Z,57.92
2019-04-06T22:05:46.442Z,58.23
2019-04-06T22:08:20.422Z,58.20
2019-04-06T22:10:57.228Z,58.26
2019-04-06T22:13:32.871Z,58.17
2019-04-06T22:16:13.074Z,58.38
2019-04-06T22:18:46.563Z,58.50
2019-04-06T22:21:21.597Z,58.83
2019-04-06T22:23:55.402Z,58.75
2019-04-06T22:26:30.934Z,58.83
2019-04-06T22:29:03.876Z,58.77
2019-04-06T22:31:39.201Z,58.87
2019-04-06T22:34:16.160Z,59.15
2019-04-06T22:36:48.867Z,59.16
2019-04-06T22:39:25.188Z,59.18
2019-04-06T22:41:59.803Z,59.41
2019-04-06T22:44:37.170Z,59.47
2019-04-06T22:47:16.174Z,59.62
2019-04-06T22:49:49.711Z,59.63
2019-04-06T22:52:25.105Z,59.76
2019-04-06T22:55:02.506Z,59.59
2019-04-06T22:57:38.666Z,59.49
2019-04-06T23:00:13.388Z,60.43
2019-04-06T23:03:00.409Z,60.44
2019-04-06T23:05:41.553Z,60.23
2019-04-06T23:08:19.975Z,60.62
2019-04-06T23:10:53.112Z,60.45
2019-04-06T23:13:24.426Z,60.36
2019-04-06T23:16:01.065Z,60.10
2019-04-06T23:18:37.680Z,59.96
2019-04-06T23:21:13.902Z,59.88
2019-04-06T23:23:48.626Z,60.14
2019-04-06T23:26:21.889Z,60.25
2019-04-06T23:29:01.784Z,60.48
2019-04-06T23:31:41.764Z,60.58
2019-04-06T23:34:18.035Z,60.65
2019-04-06T23:36:55.720Z,60.56
2019-04-06T23:39:33.102Z,60.64
2019-04-06T23:42:08.849Z,60.61
2019-04-06T23:44:46.824Z,60.87
2019-04-06T23:47:20.613Z,60.82
2019-04-06T23:49:57.623Z,60.78
2019-04-06T23:52:33.305Z,60.80
2019-04-06T23:55:12.245Z,60.79
2019-04-06T23:57:47.781Z,60.77
